Time;durP1;ratioP1;P1;durP2;ratioP2;P2;SDS_P1;SDS_P2;PMS_P1;PMS_P2;Temp;Humidity;BMP_temperature;BMP_pressure;BME280_temperature;BME280_humidity;BME280_pressure;Samples;Min_cycle;Max_cycle;Signal;HPM_P1;HPM_P2
2021/09/04 04:01:35;;;;;;;14.30;12.90;;;14.30;99.90;;;;;;5456088;23;20488;-68
2021/09/04 04:04:01;;;;;;;14.20;12.80;;;14.30;99.90;;;;;;4995522;28;20454;-68
2021/09/04 04:06:28;;;;;;;14.80;13.40;;;14.30;99.90;;;;;;4997159;28;20461;-68
2021/09/04 04:08:56;;;;;;;15.43;13.83;;;14.30;99.90;;;;;;4995519;28;20454;-68
2021/09/04 04:11:23;;;;;;;15.20;13.70;;;14.20;99.90;;;;;;4995172;28;20469;-68
2021/09/04 04:13:50;;;;;;;13.30;12.00;;;14.30;99.90;;;;;;4994945;28;20445;-68
2021/09/04 04:16:17;;;;;;;14.30;13.00;;;14.30;99.90;;;;;;4995727;28;20453;-68
2021/09/04 04:18:45;;;;;;;14.43;13.00;;;14.30;99.90;;;;;;4995488;28;20456;-68
2021/09/04 04:21:11;;;;;;;13.90;12.60;;;14.30;99.90;;;;;;4994840;28;20843;-68
2021/09/04 04:23:38;;;;;;;13.47;12.27;;;14.40;99.90;;;;;;4994924;28;20461;-68
2021/09/04 04:26:05;;;;;;;14.10;12.67;;;14.30;99.90;;;;;;4995334;28;20819;-68
2021/09/04 04:28:31;;;;;;;14.30;12.90;;;14.30;99.90;;;;;;4995057;28;20457;-68
2021/09/04 04:30:58;;;;;;;14.00;12.80;;;14.30;99.90;;;;;;4995962;28;20476;-68
2021/09/04 04:33:25;;;;;;;13.43;12.03;;;14.30;99.90;;;;;;4997060;28;20458;-67
2021/09/04 04:35:53;;;;;;;13.40;11.80;;;14.30;99.90;;;;;;4997194;28;20454;-68
2021/09/04 04:38:20;;;;;;;13.10;11.47;;;14.30;99.90;;;;;;4997920;28;20454;-68
2021/09/04 04:40:46;;;;;;;11.47;10.37;;;14.20;99.90;;;;;;4999518;28;20508;-67
2021/09/04 04:43:13;;;;;;;12.17;11.07;;;14.10;99.90;;;;;;5000351;28;20461;-68
2021/09/04 04:45:40;;;;;;;13.20;11.90;;;14.10;99.90;;;;;;4999185;28;20900;-68
2021/09/04 04:48:07;;;;;;;13.40;12.23;;;14.00;99.90;;;;;;4998946;28;20465;-68
2021/09/04 04:50:33;;;;;;;12.80;11.60;;;13.90;99.90;;;;;;4999026;28;20474;-68
2021/09/04 04:53:02;;;;;;;12.63;11.40;;;14.00;99.90;;;;;;4998641;28;20480;-69
2021/09/04 04:55:29;;;;;;;12.30;11.10;;;13.90;99.90;;;;;;5000202;28;20496;-68
2021/09/04 04:57:55;;;;;;;18.40;11.43;;;13.80;99.90;;;;;;4998987;28;20960;-68
2021/09/04 05:00:22;;;;;;;11.57;10.53;;;13.80;99.90;;;;;;4998716;28;20481;-68
2021/09/04 05:02:49;;;;;;;12.70;11.60;;;13.80;99.90;;;;;;4998962;28;20449;-68
2021/09/04 05:05:16;;;;;;;13.67;12.37;;;13.70;99.90;;;;;;4998846;28;20811;-68
2021/09/04 05:07:42;;;;;;;18.43;12.67;;;13.60;99.90;;;;;;4998902;28;20454;-68
2021/09/04 05:10:11;;;;;;;13.80;12.40;;;13.50;99.90;;;;;;4998620;28;20458;-67
2021/09/04 05:12:38;;;;;;;12.23;11.17;;;13.40;99.90;;;;;;4999511;28;20454;-68
2021/09/04 05:15:06;;;;;;;12.23;11.10;;;13.30;99.90;;;;;;5000023;28;20453;-67
2021/09/04 05:17:32;;;;;;;13.77;12.40;;;13.30;99.90;;;;;;4998733;28;20458;-68
2021/09/04 05:19:59;;;;;;;13.03;11.73;;;13.20;99.90;;;;;;4998553;28;20488;-68
2021/09/04 05:22:26;;;;;;;12.87;11.60;;;13.10;99.90;;;;;;4998155;28;20984;-68
2021/09/04 05:24:53;;;;;;;14.53;11.80;;;13.10;99.90;;;;;;4998595;28;20454;-68
2021/09/04 05:27:21;;;;;;;12.17;11.07;;;13.00;99.90;;;;;;4998285;28;20484;-68
2021/09/04 05:29:47;;;;;;;12.70;10.97;;;13.10;99.90;;;;;;4998554;28;20457;-68
2021/09/04 05:32:21;;;;;;;12.60;11.30;;;13.10;99.90;;;;;;5015612;28;20452;-68
2021/09/04 05:34:48;;;;;;;14.40;12.70;;;13.10;99.90;;;;;;5017553;28;20502;-68
2021/09/04 05:37:14;;;;;;;10.97;9.97;;;13.20;99.90;;;;;;5007369;28;20507;-67
2021/09/04 05:39:41;;;;;;;12.33;11.00;;;13.40;99.90;;;;;;4998714;28;20818;-67
2021/09/04 05:42:08;;;;;;;11.73;10.73;;;13.50;99.90;;;;;;4998371;28;20477;-67
2021/09/04 05:44:36;;;;;;;11.20;10.20;;;13.60;99.90;;;;;;4998379;28;20465;-67
2021/09/04 05:47:03;;;;;;;11.13;10.13;;;13.80;99.90;;;;;;4998220;28;20479;-67
2021/09/04 05:49:30;;;;;;;11.00;9.90;;;13.90;99.90;;;;;;4997383;28;20461;-67
2021/09/04 05:51:57;;;;;;;10.87;9.77;;;14.00;99.90;;;;;;5000467;28;20481;-68
2021/09/04 05:54:23;;;;;;;10.33;9.40;;;14.30;99.90;;;;;;4999139;28;21003;-68
2021/09/04 05:56:50;;;;;;;11.77;9.83;;;14.60;99.90;;;;;;4998043;28;20814;-68
2021/09/04 05:59:17;;;;;;;10.70;9.60;;;15.00;99.90;;;;;;4998028;28;20462;-68
2021/09/04 06:01:45;;;;;;;9.80;8.90;;;15.40;99.90;;;;;;4997297;28;20489;-68
2021/09/04 06:04:12;;;;;;;9.60;8.80;;;15.90;99.90;;;;;;4997365;28;20822;-68
2021/09/04 06:06:38;;;;;;;9.83;8.43;;;16.50;99.90;;;;;;4997485;28;20457;-68
2021/09/04 06:09:05;;;;;;;10.63;9.63;;;16.90;99.90;;;;;;4997115;28;20945;-68
2021/09/04 06:11:32;;;;;;;9.93;8.93;;;17.50;99.90;;;;;;4997398;28;20532;-68
2021/09/04 06:14:00;;;;;;;9.53;8.73;;;17.80;99.90;;;;;;4998462;28;20453;-68
2021/09/04 06:16:26;;;;;;;9.73;8.87;;;18.30;99.90;;;;;;4999005;28;20461;-68
2021/09/04 06:18:54;;;;;;;9.90;8.47;;;18.70;99.90;;;;;;4998526;28;20462;-68
2021/09/04 06:21:21;;;;;;;9.07;8.20;;;19.00;99.90;;;;;;4997849;28;20485;-68
2021/09/04 06:23:48;;;;;;;9.60;8.80;;;19.30;99.90;;;;;;4998532;28;20457;-68
2021/09/04 06:26:14;;;;;;;12.10;9.13;;;19.60;99.90;;;;;;4997826;28;20458;-68
2021/09/04 06:28:41;;;;;;;8.53;7.80;;;19.80;99.90;;;;;;4997639;28;20460;-68
2021/09/04 06:31:08;;;;;;;9.17;8.33;;;20.20;99.90;;;;;;4996784;28;20478;-68
2021/09/04 06:33:35;;;;;;;8.90;8.20;;;20.30;99.90;;;;;;4996605;28;20453;-68
2021/09/04 06:36:03;;;;;;;8.50;7.80;;;20.40;99.90;;;;;;4997064;28;20456;-68
2021/09/04 06:38:29;;;;;;;9.73;8.60;;;20.50;99.90;;;;;;4997279;28;20457;-68
2021/09/04 06:40:56;;;;;;;8.70;7.50;;;20.70;99.90;;;;;;4996693;28;20488;-68
2021/09/04 06:43:23;;;;;;;8.60;7.90;;;21.00;99.90;;;;;;4997571;28;20453;-68
2021/09/04 06:45:49;;;;;;;11.30;9.20;;;20.90;99.90;;;;;;4996698;28;20460;-68
2021/09/04 06:48:16;;;;;;;10.30;9.07;;;21.00;99.90;;;;;;4996441;28;20941;-67
2021/09/04 06:50:43;;;;;;;8.70;8.00;;;21.10;99.90;;;;;;4996975;28;20474;-67
2021/09/04 06:53:11;;;;;;;9.23;8.30;;;21.50;99.90;;;;;;4996757;28;20844;-67
2021/09/04 06:55:37;;;;;;;9.80;8.90;;;22.00;99.90;;;;;;4996614;28;20461;-68
2021/09/04 06:58:04;;;;;;;9.03;8.33;;;22.20;99.90;;;;;;4996593;28;20458;-68
2021/09/04 07:00:31;;;;;;;8.97;8.17;;;22.70;99.90;;;;;;4996270;28;22269;-67
2021/09/04 07:02:58;;;;;;;10.00;9.20;;;23.30;99.90;;;;;;4996200;28;20443;-68
2021/09/04 07:05:24;;;;;;;10.60;8.73;;;23.70;99.90;;;;;;4996487;28;20461;-68
2021/09/04 07:07:51;;;;;;;10.60;9.63;;;23.90;99.90;;;;;;4996531;28;20858;-68
2021/09/04 07:10:19;;;;;;;10.00;9.13;;;23.90;99.90;;;;;;4996307;28;20458;-67
2021/09/04 07:12:46;;;;;;;11.40;8.93;;;24.10;99.90;;;;;;4996361;28;20454;-68
2021/09/04 07:15:13;;;;;;;9.83;9.13;;;24.30;99.90;;;;;;4996381;28;20512;-68
2021/09/04 07:17:40;;;;;;;11.40;10.40;;;24.60;99.90;;;;;;4996422;28;20821;-68
2021/09/04 07:20:07;;;;;;;11.20;10.17;;;24.80;99.90;;;;;;4996170;28;20461;-68
2021/09/04 07:22:34;;;;;;;10.43;9.63;;;25.10;99.90;;;;;;4995510;28;20477;-68
2021/09/04 07:25:01;;;;;;;10.90;9.90;;;25.50;99.90;;;;;;4996095;28;20453;-67
2021/09/04 07:27:29;;;;;;;10.40;9.60;;;25.90;99.90;;;;;;4996000;28;20458;-67
2021/09/04 07:29:55;;;;;;;10.60;9.50;;;26.20;99.90;;;;;;4996103;28;20460;-68
2021/09/04 07:32:22;;;;;;;10.50;9.60;;;26.70;99.90;;;;;;4996121;28;20882;-68
2021/09/04 07:34:49;;;;;;;9.13;8.43;;;27.00;99.60;;;;;;4996087;28;20468;-68
2021/09/04 07:37:15;;;;;;;12.30;9.20;;;27.40;98.80;;;;;;4995594;28;20461;-68
2021/09/04 07:39:42;;;;;;;10.40;9.60;;;27.80;98.40;;;;;;4996121;28;20460;-68
2021/09/04 07:42:09;;;;;;;10.10;9.20;;;28.00;96.40;;;;;;4997084;28;20831;-68
2021/09/04 07:44:37;;;;;;;9.97;9.17;;;28.50;95.40;;;;;;4996911;28;20458;-67
2021/09/04 07:47:04;;;;;;;10.10;9.20;;;28.80;95.00;;;;;;4995829;28;20457;-68
2021/09/04 07:49:30;;;;;;;9.20;8.40;;;29.10;93.40;;;;;;4995809;28;20465;-67
2021/09/04 07:51:57;;;;;;;10.93;9.83;;;27.50;94.30;;;;;;4995793;28;20470;-68
2021/09/04 07:54:24;;;;;;;11.17;10.17;;;27.20;94.60;;;;;;4996019;28;20461;-68
2021/09/04 07:56:51;;;;;;;9.90;9.00;;;27.80;94.10;;;;;;4995417;28;20816;-68
2021/09/04 07:59:17;;;;;;;10.10;9.20;;;27.70;95.10;;;;;;4995547;28;20465;-68
2021/09/04 08:01:45;;;;;;;11.70;9.90;;;28.20;93.90;;;;;;4995047;28;20486;-68
2021/09/04 08:04:14;;;;;;;10.50;9.40;;;28.40;93.90;;;;;;4995285;28;20462;-68
2021/09/04 08:06:40;;;;;;;10.77;9.87;;;28.90;92.70;;;;;;4995327;28;20497;-68
2021/09/04 08:09:07;;;;;;;10.30;9.30;;;29.60;91.60;;;;;;4995643;28;20458;-68
2021/09/04 08:11:34;;;;;;;9.63;8.80;;;29.80;91.20;;;;;;4995720;28;20474;-68
2021/09/04 08:14:01;;;;;;;10.40;9.07;;;30.30;90.20;;;;;;4996026;28;20458;-68
2021/09/04 08:16:28;;;;;;;10.40;9.50;;;30.70;88.00;;;;;;4996049;28;20457;-68
2021/09/04 08:18:56;;;;;;;10.37;9.37;;;30.20;86.10;;;;;;4995289;28;20862;-68
2021/09/04 08:21:22;;;;;;;9.17;8.37;;;30.70;85.70;;;;;;4995066;28;20486;-68
2021/09/04 08:23:49;;;;;;;10.00;9.20;;;31.00;86.00;;;;;;4995446;28;20453;-68
2021/09/04 08:26:16;;;;;;;10.57;9.67;;;27.90;86.80;;;;;;4995066;28;20454;-68
2021/09/04 08:28:43;;;;;;;9.57;8.77;;;27.80;90.70;;;;;;4995447;28;20454;-68
2021/09/04 08:31:09;;;;;;;10.10;9.10;;;28.70;90.50;;;;;;4995035;28;20473;-68
2021/09/04 08:33:36;;;;;;;10.83;10.03;;;28.70;89.90;;;;;;4995380;28;20462;-68
2021/09/04 08:36:05;;;;;;;9.67;8.80;;;29.30;86.60;;;;;;4997587;28;20458;-69
2021/09/04 08:38:31;;;;;;;9.87;9.07;;;29.60;87.50;;;;;;4995038;28;20458;-68
2021/09/04 08:40:58;;;;;;;8.37;7.77;;;30.30;82.90;;;;;;4995006;28;20489;-68
2021/09/04 08:43:25;;;;;;;8.63;8.03;;;30.90;82.70;;;;;;4994757;28;20512;-68
2021/09/04 08:45:52;;;;;;;8.70;8.00;;;32.00;78.70;;;;;;4994892;28;20453;-69
2021/09/04 08:48:21;;;;;;;10.20;8.97;;;32.70;78.20;;;;;;4994648;28;20454;-68
2021/09/04 08:50:47;;;;;;;10.10;9.30;;;32.20;76.20;;;;;;4994830;28;20516;-68
2021/09/04 08:53:16;;;;;;;8.27;7.57;;;33.10;74.50;;;;;;4994824;28;20461;-68
2021/09/04 08:55:42;;;;;;;8.43;7.83;;;33.90;73.10;;;;;;4994899;28;20457;-68
2021/09/04 08:58:09;;;;;;;8.47;7.60;;;34.50;69.20;;;;;;4994276;28;20813;-69
2021/09/04 09:00:38;;;;;;;9.07;8.10;;;34.40;69.40;;;;;;4994398;28;20523;-68
2021/09/04 09:03:05;;;;;;;9.63;8.90;;;34.50;66.80;;;;;;4994942;28;20434;-68
2021/09/04 09:05:39;;;;;;;8.50;7.80;;;34.20;64.90;;;;;;4994361;28;20457;-68
2021/09/04 09:08:06;;;;;;;8.10;7.30;;;34.10;68.60;;;;;;4994588;28;20500;-68
2021/09/04 09:10:38;;;;;;;8.20;7.27;;;34.10;67.50;;;;;;4994765;28;20477;-68
2021/09/04 09:13:05;;;;;;;9.13;8.53;;;34.30;66.50;;;;;;4995122;28;20473;-68
2021/09/04 09:15:33;;;;;;;8.43;7.73;;;33.50;64.60;;;;;;4994538;28;21064;-68
2021/09/04 09:18:06;;;;;;;7.47;6.97;;;32.90;67.10;;;;;;4994994;28;20459;-68
2021/09/04 09:20:34;;;;;;;9.33;8.23;;;33.80;67.00;;;;;;4994422;28;20476;-68
2021/09/04 09:23:06;;;;;;;8.40;7.80;;;34.50;64.40;;;;;;4994926;28;20937;-68
2021/09/04 09:25:33;;;;;;;8.43;7.83;;;34.30;64.70;;;;;;4997119;28;20500;-68
2021/09/04 09:28:03;;;;;;;9.67;8.83;;;34.20;65.60;;;;;;4998356;28;20489;-69
2021/09/04 09:30:31;;;;;;;7.03;6.53;;;33.60;63.60;;;;;;4998184;28;20438;-68
2021/09/04 09:32:58;;;;;;;7.37;6.87;;;34.40;66.20;;;;;;4998586;28;20452;-69
2021/09/04 09:35:33;;;;;;;8.93;8.13;;;35.30;63.50;;;;;;4998821;28;20465;-68
2021/09/04 09:38:02;;;;;;;9.07;8.27;;;36.10;58.30;;;;;;5000798;28;20467;-68
2021/09/04 09:40:29;;;;;;;9.30;8.13;;;36.90;57.20;;;;;;4998805;28;20455;-68
2021/09/04 09:42:56;;;;;;;8.50;8.00;;;36.20;56.10;;;;;;4998960;28;20506;-68
2021/09/04 09:45:39;;;;;;;7.43;6.60;;;35.00;58.90;;;;;;4998064;28;20454;-68
2021/09/04 09:48:06;;;;;;;6.60;6.10;;;35.10;67.00;;;;;;4998722;28;20450;-69
2021/09/04 09:50:34;;;;;;;10.40;9.03;;;35.20;59.50;;;;;;4998588;28;20487;-69
2021/09/04 09:53:01;;;;;;;8.83;8.23;;;36.30;58.10;;;;;;4998013;28;20495;-69
2021/09/04 09:55:29;;;;;;;9.20;8.40;;;37.00;56.10;;;;;;4998033;28;20456;-69
2021/09/04 09:57:57;;;;;;;7.87;7.27;;;36.00;56.20;;;;;;4997904;28;20461;-68
2021/09/04 10:00:24;;;;;;;8.57;7.93;;;36.50;58.20;;;;;;4997762;28;20460;-68
2021/09/04 10:02:58;;;;;;;10.20;8.03;;;36.50;56.60;;;;;;4997477;28;20466;-68
2021/09/04 10:05:27;;;;;;;7.63;7.03;;;37.00;54.30;;;;;;4998132;28;20453;-69
2021/09/04 10:07:54;;;;;;;8.07;7.40;;;37.10;53.10;;;;;;4998700;28;20464;-69
2021/09/04 10:10:21;;;;;;;10.10;8.60;;;37.00;51.20;;;;;;5016036;28;20458;-68
2021/09/04 10:12:49;;;;;;;7.73;7.13;;;36.70;51.60;;;;;;5005871;28;20454;-67
2021/09/04 10:15:16;;;;;;;6.10;5.50;;;36.80;54.60;;;;;;5000078;28;20473;-68
2021/09/04 10:17:44;;;;;;;6.00;5.60;;;36.90;54.80;;;;;;4997654;28;20828;-68
2021/09/04 10:20:13;;;;;;;6.47;5.90;;;36.30;54.10;;;;;;4997388;28;20949;-68
2021/09/04 10:22:41;;;;;;;6.10;5.50;;;36.20;55.80;;;;;;4997647;28;20489;-68
2021/09/04 10:25:15;;;;;;;6.30;5.90;;;36.80;52.70;;;;;;4997490;28;20542;-68
2021/09/04 10:27:44;;;;;;;6.43;5.93;;;36.90;50.60;;;;;;4997351;28;20443;-68
2021/09/04 10:30:22;;;;;;;6.40;6.00;;;36.90;50.80;;;;;;4997582;28;20461;-68
2021/09/04 10:33:14;;;;;;;6.70;6.20;;;36.90;49.90;;;;;;4998051;28;20537;-68
2021/09/04 10:35:45;;;;;;;5.50;5.10;;;37.00;50.40;;;;;;4988079;28;20461;-68
2021/09/04 10:38:26;;;;;;;6.60;6.10;;;36.90;52.10;;;;;;4997550;28;20458;-68
2021/09/04 10:41:13;;;;;;;5.50;5.10;;;36.80;55.30;;;;;;4997196;28;20477;-68
2021/09/04 10:43:42;;;;;;;5.93;5.57;;;36.70;50.80;;;;;;4997167;28;20502;-68
2021/09/04 10:46:12;;;;;;;5.80;5.20;;;36.80;53.80;;;;;;4997378;28;20453;-68
2021/09/04 10:48:39;;;;;;;5.60;5.30;;;37.20;51.70;;;;;;4996894;28;20448;-68
2021/09/04 10:51:08;;;;;;;6.07;5.57;;;36.60;52.00;;;;;;4996770;28;20503;-68
2021/09/04 10:53:42;;;;;;;5.70;5.10;;;36.50;53.50;;;;;;4996922;28;20460;-68
2021/09/04 10:56:22;;;;;;;5.30;4.90;;;36.40;51.80;;;;;;4996643;28;20461;-68
2021/09/04 10:58:50;;;;;;;5.77;5.37;;;36.20;54.40;;;;;;4997346;28;20524;-68
2021/09/04 11:01:18;;;;;;;6.53;5.00;;;36.30;51.50;;;;;;4996707;28;20591;-68
2021/09/04 11:03:53;;;;;;;5.73;5.40;;;36.30;49.40;;;;;;4996910;28;20455;-68
2021/09/04 11:06:21;;;;;;;5.10;4.80;;;36.30;49.70;;;;;;4997871;28;20444;-69
2021/09/04 11:08:49;;;;;;;5.23;4.93;;;35.70;51.10;;;;;;4998485;28;20461;-68
2021/09/04 11:11:27;;;;;;;5.80;5.30;;;35.10;55.30;;;;;;4997031;28;20477;-68
2021/09/04 11:13:54;;;;;;;6.17;5.77;;;35.00;55.00;;;;;;4996800;28;20492;-69
2021/09/04 11:16:33;;;;;;;6.50;5.90;;;35.00;53.60;;;;;;4996346;28;20957;-69
2021/09/04 11:19:10;;;;;;;6.17;5.67;;;34.20;56.40;;;;;;4996496;28;20441;-69
2021/09/04 11:21:49;;;;;;;6.07;5.67;;;33.90;55.20;;;;;;4996354;28;20512;-68
2021/09/04 11:24:21;;;;;;;6.97;6.37;;;33.10;57.20;;;;;;4996316;28;20469;-70
2021/09/04 11:26:53;;;;;;;6.43;5.93;;;32.70;60.10;;;;;;4996410;28;20457;-68
2021/09/04 11:29:20;;;;;;;6.70;6.10;;;32.70;56.40;;;;;;4996383;28;20445;-68
2021/09/04 11:31:56;;;;;;;7.07;6.47;;;32.70;58.30;;;;;;4996015;28;20474;-68
2021/09/04 11:34:46;;;;;;;5.67;5.20;;;32.70;58.20;;;;;;4995976;28;20917;-68
2021/09/04 11:37:33;;;;;;;6.00;5.60;;;32.40;58.30;;;;;;4995731;28;20924;-69
2021/09/04 11:40:04;;;;;;;5.57;5.17;;;32.00;56.10;;;;;;4995854;28;20445;-68
2021/09/04 11:42:32;;;;;;;7.43;5.40;;;32.00;55.50;;;;;;4996693;28;20492;-69
2021/09/04 11:45:00;;;;;;;5.20;4.90;;;31.70;55.90;;;;;;4995539;28;20971;-68
2021/09/04 11:47:28;;;;;;;4.90;4.60;;;31.30;56.50;;;;;;4995937;28;20822;-68
2021/09/04 11:49:56;;;;;;;5.17;4.73;;;31.00;53.10;;;;;;4995981;28;20454;-68
2021/09/04 11:52:28;;;;;;;4.53;4.23;;;31.00;56.70;;;;;;4996483;28;20497;-70
2021/09/04 11:55:06;;;;;;;5.80;5.30;;;30.90;55.80;;;;;;4995876;28;20448;-69
2021/09/04 11:57:36;;;;;;;5.53;5.03;;;30.80;55.80;;;;;;4995643;28;20450;-69
2021/09/04 12:00:09;;;;;;;5.80;5.30;;;30.60;55.30;;;;;;4995800;28;20529;-68
2021/09/04 12:02:36;;;;;;;7.50;4.33;;;30.50;54.30;;;;;;4995158;28;21056;-67
2021/09/04 12:05:05;;;;;;;4.83;4.53;;;30.10;55.00;;;;;;4995899;28;20464;-67
2021/09/04 12:07:34;;;;;;;5.00;4.63;;;30.00;57.50;;;;;;4995704;28;20453;-67
2021/09/04 12:10:02;;;;;;;5.30;4.50;;;29.90;58.60;;;;;;4995692;28;20465;-67
2021/09/04 12:12:31;;;;;;;6.03;5.63;;;30.00;58.80;;;;;;4996117;28;20504;-67
2021/09/04 12:14:58;;;;;;;5.60;5.10;;;30.10;58.70;;;;;;4995631;28;20457;-68
2021/09/04 12:17:26;;;;;;;5.87;5.30;;;30.30;60.70;;;;;;4995684;28;20475;-68
2021/09/04 12:19:53;;;;;;;6.07;5.57;;;29.90;58.00;;;;;;4995368;28;20453;-68
2021/09/04 12:22:30;;;;;;;5.30;4.90;;;29.80;59.50;;;;;;4996501;28;20482;-68
2021/09/04 12:24:57;;;;;;;5.33;4.70;;;30.20;59.40;;;;;;5000184;28;20453;-68
2021/09/04 12:27:38;;;;;;;5.47;5.10;;;30.10;58.20;;;;;;5006698;28;20925;-68
2021/09/04 12:30:05;;;;;;;5.00;4.67;;;30.10;58.90;;;;;;4995977;28;20804;-70
2021/09/04 12:32:34;;;;;;;4.70;4.40;;;30.10;57.60;;;;;;4995381;28;20473;-68
2021/09/04 12:35:01;;;;;;;5.13;4.83;;;30.10;56.30;;;;;;4995841;28;20461;-68
2021/09/04 12:37:29;;;;;;;5.00;4.60;;;30.30;57.10;;;;;;4995406;28;20457;-68
2021/09/04 12:40:06;;;;;;;4.80;4.50;;;30.40;55.40;;;;;;4994803;28;20454;-68
2021/09/04 12:42:33;;;;;;;5.20;4.90;;;30.60;56.40;;;;;;4994952;28;20481;-68
2021/09/04 12:45:08;;;;;;;5.67;5.27;;;30.80;58.70;;;;;;4994952;28;20865;-67
2021/09/04 12:47:43;;;;;;;5.63;5.13;;;30.70;59.00;;;;;;4994999;28;20495;-68
2021/09/04 12:50:21;;;;;;;5.27;4.87;;;30.90;60.40;;;;;;4994924;28;20453;-68
2021/09/04 12:53:04;;;;;;;5.10;4.70;;;31.00;57.20;;;;;;4994887;28;20824;-68
2021/09/04 12:55:53;;;;;;;4.80;4.50;;;30.90;56.10;;;;;;4995309;28;20442;-68
2021/09/04 12:58:20;;;;;;;6.70;4.90;;;31.00;55.50;;;;;;4995069;28;20796;-68
2021/09/04 13:00:48;;;;;;;5.00;4.70;;;30.60;57.80;;;;;;4998162;28;20485;-67
2021/09/04 13:03:15;;;;;;;4.90;4.60;;;30.40;57.20;;;;;;4999171;28;20477;-68
2021/09/04 13:05:42;;;;;;;5.30;4.73;;;30.10;58.90;;;;;;5001277;28;20472;-68
2021/09/04 13:08:09;;;;;;;4.70;4.40;;;30.10;57.70;;;;;;4999005;28;20460;-68
2021/09/04 13:10:35;;;;;;;5.17;4.87;;;30.00;58.10;;;;;;4997778;28;21034;-68
2021/09/04 13:13:02;;;;;;;5.20;4.80;;;30.20;58.80;;;;;;4998434;28;20937;-68
2021/09/04 13:15:30;;;;;;;5.13;4.83;;;30.20;57.20;;;;;;4999055;28;20472;-68
2021/09/04 13:17:58;;;;;;;4.87;4.50;;;30.30;59.50;;;;;;4999279;28;20457;-68
2021/09/04 13:20:25;;;;;;;4.70;4.40;;;30.10;58.10;;;;;;4998602;28;20464;-67
2021/09/04 13:22:52;;;;;;;5.67;5.17;;;30.30;59.40;;;;;;4998756;28;20484;-68
2021/09/04 13:25:19;;;;;;;5.10;4.80;;;30.10;62.50;;;;;;4998531;28;20515;-68
2021/09/04 13:27:48;;;;;;;5.90;5.00;;;30.20;58.20;;;;;;4999932;28;20975;-68
2021/09/04 13:30:15;;;;;;;5.17;4.67;;;30.40;59.70;;;;;;4998381;28;20869;-67
2021/09/04 13:32:42;;;;;;;4.63;4.33;;;30.50;56.70;;;;;;4998177;28;20460;-68
2021/09/04 13:35:12;;;;;;;5.43;5.03;;;30.40;58.00;;;;;;4999120;28;20511;-68
2021/09/04 13:37:38;;;;;;;5.33;4.83;;;30.20;58.00;;;;;;4998003;28;20462;-68
2021/09/04 13:40:06;;;;;;;5.70;4.97;;;30.20;56.30;;;;;;4997869;28;20959;-68
2021/09/04 13:42:33;;;;;;;4.93;4.63;;;30.30;56.30;;;;;;4997686;28;20492;-68
2021/09/04 13:45:00;;;;;;;4.67;4.37;;;30.30;58.70;;;;;;4998072;28;20461;-68
2021/09/04 13:47:26;;;;;;;5.73;5.33;;;30.40;57.20;;;;;;4998437;28;20461;-68
2021/09/04 13:49:53;;;;;;;5.07;4.70;;;30.50;56.60;;;;;;4998105;28;20960;-68
2021/09/04 13:52:21;;;;;;;5.20;4.80;;;30.60;56.10;;;;;;4997545;28;20837;-67
2021/09/04 13:54:48;;;;;;;5.10;4.70;;;30.50;56.50;;;;;;4997888;28;20450;-68
2021/09/04 13:57:14;;;;;;;7.13;4.80;;;30.50;56.10;;;;;;4997766;28;20453;-68
2021/09/04 13:59:41;;;;;;;5.03;4.73;;;30.50;55.30;;;;;;4997282;28;20821;-67
2021/09/04 14:02:08;;;;;;;4.90;4.60;;;30.40;56.10;;;;;;4996784;28;20556;-68
2021/09/04 14:04:34;;;;;;;5.13;4.73;;;30.30;58.60;;;;;;4997902;28;20508;-68
2021/09/04 14:07:01;;;;;;;4.60;4.30;;;30.20;59.00;;;;;;4998163;28;20460;-68
2021/09/04 14:09:32;;;;;;;4.53;4.13;;;30.20;60.80;;;;;;4997489;28;20949;-68
2021/09/04 14:11:59;;;;;;;5.23;4.83;;;30.10;63.30;;;;;;4996747;28;20477;-68
2021/09/04 14:14:26;;;;;;;5.20;4.90;;;30.30;59.30;;;;;;4997874;28;20458;-68
2021/09/04 14:16:52;;;;;;;4.90;4.20;;;30.40;59.20;;;;;;4997445;28;20462;-67
2021/09/04 14:19:19;;;;;;;5.47;4.93;;;30.40;57.80;;;;;;4997228;28;20461;-68
2021/09/04 14:21:46;;;;;;;5.10;4.80;;;30.20;57.30;;;;;;4996976;28;20477;-67
2021/09/04 14:24:12;;;;;;;5.37;4.97;;;30.00;58.90;;;;;;4997277;28;20478;-68
2021/09/04 14:26:40;;;;;;;5.73;5.00;;;29.80;58.20;;;;;;4997326;28;20461;-67
2021/09/04 14:29:07;;;;;;;5.20;4.80;;;29.80;60.20;;;;;;4997172;28;20454;-67
2021/09/04 14:31:34;;;;;;;4.93;4.43;;;29.70;60.90;;;;;;4996905;28;20474;-67
2021/09/04 14:34:01;;;;;;;5.03;4.73;;;29.80;59.10;;;;;;4996975;28;20450;-67
2021/09/04 14:36:27;;;;;;;4.73;4.43;;;30.00;59.70;;;;;;4996965;28;20461;-67
2021/09/04 14:38:55;;;;;;;5.23;4.80;;;30.10;60.00;;;;;;4996780;28;20964;-67
2021/09/04 14:41:22;;;;;;;5.83;5.33;;;30.20;61.10;;;;;;4996460;28;21007;-67
2021/09/04 14:43:50;;;;;;;4.77;4.47;;;30.20;56.70;;;;;;4996596;28;20500;-68
2021/09/04 14:46:17;;;;;;;5.33;4.83;;;30.10;60.50;;;;;;4997271;28;20858;-67
2021/09/04 14:48:44;;;;;;;5.80;5.40;;;30.10;61.80;;;;;;4997301;28;20458;-67
2021/09/04 14:51:10;;;;;;;6.83;6.33;;;30.20;56.00;;;;;;4996441;28;20880;-67
2021/09/04 14:53:37;;;;;;;6.33;5.83;;;30.20;55.80;;;;;;4996219;28;20454;-67
2021/09/04 14:56:04;;;;;;;4.70;4.40;;;30.10;63.10;;;;;;4996795;28;20461;-67
2021/09/04 14:58:31;;;;;;;5.27;4.77;;;30.00;58.90;;;;;;4996789;28;20457;-67
2021/09/04 15:00:59;;;;;;;4.37;4.07;;;30.00;57.00;;;;;;5001772;28;20906;-68
2021/09/04 15:03:26;;;;;;;4.67;4.27;;;30.00;57.00;;;;;;4998462;28;20910;-68
2021/09/04 15:05:53;;;;;;;5.00;4.60;;;29.80;57.40;;;;;;4996777;28;20453;-68
2021/09/04 15:08:19;;;;;;;4.70;4.40;;;29.50;57.40;;;;;;4996626;28;20462;-68
2021/09/04 15:10:46;;;;;;;4.70;4.40;;;29.60;56.10;;;;;;4996318;28;20474;-68
2021/09/04 15:13:13;;;;;;;5.90;4.67;;;29.60;61.20;;;;;;4996935;28;20476;-68
2021/09/04 15:15:40;;;;;;;4.97;4.60;;;29.60;55.30;;;;;;4996631;28;20479;-67
2021/09/04 15:18:08;;;;;;;5.30;4.90;;;29.60;55.40;;;;;;4996342;28;20456;-68
2021/09/04 15:20:34;;;;;;;4.90;4.60;;;29.60;59.20;;;;;;4996380;28;20477;-67
2021/09/04 15:23:02;;;;;;;5.03;4.57;;;29.50;59.10;;;;;;4996010;28;20474;-67
2021/09/04 15:25:28;;;;;;;4.90;4.50;;;29.40;57.40;;;;;;4995855;28;20972;-68
2021/09/04 15:27:55;;;;;;;5.53;4.90;;;29.50;58.20;;;;;;4996355;28;20457;-68
2021/09/04 15:30:22;;;;;;;5.00;4.70;;;29.10;56.90;;;;;;4996223;28;20460;-67
2021/09/04 15:32:49;;;;;;;4.73;4.43;;;29.30;57.50;;;;;;4996029;28;20530;-68
2021/09/04 15:35:17;;;;;;;4.80;4.30;;;28.70;56.30;;;;;;4995987;28;20481;-67
2021/09/04 15:37:43;;;;;;;5.17;4.77;;;28.90;56.60;;;;;;4996133;28;20458;-67
2021/09/04 15:40:11;;;;;;;4.90;4.60;;;28.90;58.40;;;;;;4995960;28;20460;-68
2021/09/04 15:42:38;;;;;;;4.73;4.43;;;29.00;57.60;;;;;;4995183;28;20489;-68
2021/09/04 15:45:06;;;;;;;4.53;4.23;;;29.00;59.50;;;;;;4996794;28;20803;-67
2021/09/04 15:47:32;;;;;;;4.23;3.93;;;29.10;57.40;;;;;;4995637;28;20465;-68
2021/09/04 15:49:59;;;;;;;5.10;3.87;;;29.10;56.80;;;;;;4996630;28;20465;-67
2021/09/04 15:52:27;;;;;;;4.77;4.47;;;29.00;56.70;;;;;;4995832;28;20474;-68
2021/09/04 15:54:54;;;;;;;4.97;4.57;;;28.80;59.20;;;;;;4995701;28;20465;-68
2021/09/04 15:57:20;;;;;;;5.57;4.97;;;28.70;59.10;;;;;;4995465;28;20457;-68
2021/09/04 15:59:47;;;;;;;4.93;4.47;;;28.60;59.40;;;;;;4995668;28;20454;-67
2021/09/04 16:02:14;;;;;;;5.60;5.10;;;28.30;58.20;;;;;;4995115;28;20508;-68
2021/09/04 16:04:40;;;;;;;5.63;5.23;;;28.10;59.40;;;;;;4995469;28;20481;-67
2021/09/04 16:07:07;;;;;;;5.13;4.73;;;28.00;58.80;;;;;;4995010;28;20823;-67
2021/09/04 16:09:38;;;;;;;5.90;5.10;;;28.00;60.20;;;;;;4995473;28;20461;-68
2021/09/04 16:12:05;;;;;;;5.87;5.47;;;27.90;62.70;;;;;;4994893;28;20525;-68
2021/09/04 16:14:31;;;;;;;5.40;5.00;;;27.90;60.70;;;;;;4995402;28;20967;-67
2021/09/04 16:16:58;;;;;;;5.47;4.97;;;27.80;60.50;;;;;;4995019;28;20461;-67
2021/09/04 16:19:25;;;;;;;4.37;4.07;;;27.60;59.00;;;;;;4995240;28;20453;-67
2021/09/04 16:21:51;;;;;;;4.30;4.00;;;27.50;61.20;;;;;;4995438;28;20508;-67
2021/09/04 16:24:18;;;;;;;5.33;4.93;;;27.30;62.40;;;;;;4995408;28;20477;-68
2021/09/04 16:26:46;;;;;;;9.90;8.93;;;27.20;61.30;;;;;;4995148;28;20458;-68
2021/09/04 16:29:13;;;;;;;5.87;5.47;;;27.10;61.80;;;;;;4995118;28;20461;-68
2021/09/04 16:31:39;;;;;;;6.87;6.30;;;27.00;62.60;;;;;;4995132;28;20598;-67
2021/09/04 16:34:06;;;;;;;7.60;6.90;;;26.90;63.40;;;;;;4993933;28;20457;-67
2021/09/04 16:36:33;;;;;;;6.80;6.30;;;26.80;62.80;;;;;;4994716;28;20956;-67
2021/09/04 16:38:59;;;;;;;7.43;5.50;;;26.80;61.70;;;;;;4994714;28;20830;-68
2021/09/04 16:41:26;;;;;;;9.47;8.67;;;26.60;64.20;;;;;;4995995;28;20474;-67
2021/09/04 16:43:54;;;;;;;8.57;7.87;;;26.60;64.40;;;;;;4994732;28;20473;-67
2021/09/04 16:46:21;;;;;;;10.33;9.43;;;26.50;66.60;;;;;;4994834;28;20972;-67
2021/09/04 16:48:48;;;;;;;6.73;6.23;;;26.50;68.40;;;;;;4995002;28;20864;-67